Decoded Metar for TIST (ST. THOMAS in VIRGIN ISL.) (IATA:STT) | Meteo·Mobile Aviation Weather
aviador You're here:

TIST Decoded Metar

ST. THOMAS in VIRGIN ISL.
Report Time2018-10-21 20:53:00
UTC Time2018-10-21 21:08:46
Flight Rules vfr VFR
Wind070° at 08 kt
W.Decomp.*RWY 10: 7.7 kt HW 2.3 kt LCW
W.Rank070° ranks 4
Current wind is below 070° avg. (8.1)
Visibility9999 m
Phenomena:N/A
Clouds:Few 026 Hf
Expected CloudBase > 2,400 ft AGL from Temp-Dew spread
CeilingNone
Temp29°C (ISA +14)
Dew Point23°C (70% RH)
Heat Index32.7°C
QNH1010 hPa
Density Alt2,106 ft
Elevation23 ft
Report Wrong Elevation
Raw Report
TIST 212053Z 07008KT 10SM FEW026 29/23 A2984 RMK AO2 SLP105
T02890233 55003 $=

Extra information for TIST:More info

Metar Taf Metar & Taf Last 4 Metars F.Rules Stats Wind Profile Meteogram Temp Stats Airport Information Weather charts Add Link Nearby VenuesMetar ALERT Operation Metar Decoded Social comments